Terminal Aerodrome Forecast
Issued by NWS

Home | Current Version | Previous Version | Graphics & Text | Print | Product List | Glossary On
Versions: 1 2 3 4 5 6 7 8 9 10 11 12 13 14
251
FTUS43 KUNR 240423 AAA
TAFGCC
TAF AMD
KGCC 240423Z 2404/2424 18010KT P6SM VCTS BKN100CB
      TEMPO 2404/2406 VRB20G40KT P6SM -TSRA BKN070CB
     FM240700 24010KT P6SM SCT150
     FM241700 33015KT P6SM SCT100=

USA.gov is the U.S. government's official web portal to all federal, state and local government web resources and services.